Time;durP1;ratioP1;P1;durP2;ratioP2;P2;SDS_P1;SDS_P2;PMS_P1;PMS_P2;Temp;Humidity;BMP_temperature;BMP_pressure;BME280_temperature;BME280_humidity;BME280_pressure;Samples;Min_cycle;Max_cycle;Signal;HPM_P1;HPM_P2
2022/12/05 00:02:38;;;;;;;230.95;67.85;;;2.70;99.90;;;;;;5014753;28;20120;-63
2022/12/05 00:05:24;;;;;;;195.30;67.22;;;2.70;99.90;;;;;;4999972;28;20031;-62
2022/12/05 00:08:10;;;;;;;192.52;67.43;;;2.70;99.90;;;;;;5014390;28;20088;-61
2022/12/05 00:10:56;;;;;;;207.02;67.63;;;2.70;99.90;;;;;;5014082;28;20030;-62
2022/12/05 00:13:43;;;;;;;213.38;68.45;;;2.60;99.90;;;;;;4994586;28;20034;-64
2022/12/05 00:16:31;;;;;;;220.10;68.18;;;2.70;99.90;;;;;;4997017;28;20018;-62
2022/12/05 00:19:17;;;;;;;201.60;66.15;;;2.70;99.90;;;;;;5015201;28;20030;-61
2022/12/05 00:22:03;;;;;;;247.45;71.90;;;2.70;99.90;;;;;;5013940;28;20399;-64
2022/12/05 00:24:49;;;;;;;199.90;69.85;;;2.70;99.90;;;;;;5007109;28;20097;-63
2022/12/05 00:27:38;;;;;;;193.65;69.00;;;2.70;99.90;;;;;;5001723;28;20121;-64
2022/12/05 00:30:24;;;;;;;184.90;66.65;;;2.70;99.90;;;;;;4983884;28;20406;-66
2022/12/05 00:33:10;;;;;;;177.50;65.30;;;2.70;99.90;;;;;;4999673;28;20026;-65
2022/12/05 00:36:04;;;;;;;169.82;63.85;;;2.70;99.90;;;;;;5012110;28;20047;-65
2022/12/05 00:38:51;;;;;;;178.02;61.75;;;2.80;99.90;;;;;;4999156;28;20033;-66
2022/12/05 00:41:37;;;;;;;162.40;63.28;;;2.80;99.90;;;;;;5012952;28;20021;-66
2022/12/05 00:44:23;;;;;;;159.95;60.78;;;2.80;99.90;;;;;;5012405;28;20030;-68
2022/12/05 00:47:09;;;;;;;160.15;60.33;;;2.90;99.90;;;;;;4986215;28;20036;-66
2022/12/05 00:49:55;;;;;;;149.15;62.28;;;2.90;99.90;;;;;;5013704;28;20022;-65
2022/12/05 00:52:41;;;;;;;154.00;57.25;;;2.90;99.90;;;;;;4979088;28;20045;-66
2022/12/05 00:55:27;;;;;;;140.77;59.97;;;2.90;99.90;;;;;;4995404;28;20023;-65
2022/12/05 00:58:13;;;;;;;139.77;56.25;;;3.00;99.90;;;;;;4998116;28;20486;-65
2022/12/05 01:01:16;;;;;;;141.80;57.88;;;3.00;99.90;;;;;;4998656;28;20402;-65
2022/12/05 01:04:11;;;;;;;140.35;55.92;;;3.00;99.90;;;;;;5013236;28;20026;-66
2022/12/05 01:06:58;;;;;;;142.32;57.60;;;3.00;99.90;;;;;;5011776;28;20084;-67
2022/12/05 01:09:44;;;;;;;145.95;54.53;;;3.00;99.90;;;;;;5011710;28;20044;-66
2022/12/05 01:12:29;;;;;;;132.20;55.20;;;3.00;99.90;;;;;;5012673;28;20045;-66
2022/12/05 01:15:15;;;;;;;147.50;57.10;;;2.90;99.90;;;;;;5011285;28;20522;-65
2022/12/05 01:18:01;;;;;;;127.38;53.60;;;2.90;99.90;;;;;;4992041;28;20034;-66
2022/12/05 01:20:48;;;;;;;139.82;55.55;;;3.00;99.90;;;;;;4980070;28;20023;-65
2022/12/05 01:23:34;;;;;;;138.75;58.90;;;3.00;99.90;;;;;;5011789;28;20073;-65
2022/12/05 01:26:21;;;;;;;137.18;59.35;;;3.00;99.90;;;;;;5012688;28;20088;-64
2022/12/05 01:29:09;;;;;;;150.23;61.03;;;3.10;99.90;;;;;;5012949;28;20030;-64
2022/12/05 01:31:55;;;;;;;152.57;58.78;;;3.10;99.90;;;;;;5011438;28;20108;-61
2022/12/05 01:34:41;;;;;;;143.18;56.03;;;3.10;99.90;;;;;;4997783;28;20029;-64
2022/12/05 01:37:27;;;;;;;136.30;55.35;;;3.10;99.90;;;;;;5011058;28;20118;-63
2022/12/05 01:40:12;;;;;;;153.75;58.58;;;3.10;99.90;;;;;;5012402;28;20037;-65
2022/12/05 01:42:59;;;;;;;159.73;57.80;;;3.00;99.90;;;;;;4998125;28;20495;-65
2022/12/05 01:45:45;;;;;;;164.85;63.13;;;3.00;99.90;;;;;;4981970;28;20034;-64
2022/12/05 01:48:34;;;;;;;149.23;58.88;;;3.10;99.90;;;;;;5010820;28;20026;-63
2022/12/05 01:51:22;;;;;;;151.73;55.78;;;3.00;99.90;;;;;;5011564;28;20022;-63
2022/12/05 01:54:10;;;;;;;167.18;59.72;;;3.10;99.90;;;;;;5011529;28;20494;-64
2022/12/05 01:57:01;;;;;;;167.32;57.65;;;3.00;99.90;;;;;;5012545;28;20026;-64
2022/12/05 01:59:54;;;;;;;182.23;60.85;;;3.00;99.90;;;;;;4984253;28;20030;-63
2022/12/05 02:02:45;;;;;;;168.55;59.95;;;3.00;99.90;;;;;;5010752;28;20025;-65
2022/12/05 02:05:36;;;;;;;180.10;59.38;;;3.10;99.90;;;;;;5012423;28;20025;-61
2022/12/05 02:08:22;;;;;;;149.00;58.13;;;3.10;99.90;;;;;;4997089;28;20038;-64
2022/12/05 02:11:09;;;;;;;141.20;56.35;;;3.10;99.90;;;;;;5012762;28;20041;-63
2022/12/05 02:14:25;;;;;;;183.25;59.05;;;3.10;99.90;;;;;;4998218;28;20060;-62
2022/12/05 02:17:20;;;;;;;146.23;56.72;;;3.10;99.90;;;;;;4996330;28;20017;-64
2022/12/05 02:20:42;;;;;;;163.25;55.83;;;3.10;99.90;;;;;;5013008;28;20018;-63
2022/12/05 02:23:49;;;;;;;134.73;52.30;;;3.10;99.90;;;;;;5012645;28;20030;-63
2022/12/05 02:27:06;;;;;;;128.50;53.60;;;3.10;99.90;;;;;;5011128;28;20060;-63
2022/12/05 02:30:21;;;;;;;135.90;55.67;;;3.10;99.90;;;;;;5006463;28;20029;-64
2022/12/05 02:33:44;;;;;;;130.32;56.40;;;3.10;99.90;;;;;;5003141;28;20033;-63
2022/12/05 02:37:08;;;;;;;132.85;53.88;;;3.00;99.90;;;;;;5010209;28;20064;-65
2022/12/05 02:40:04;;;;;;;134.85;55.25;;;3.00;99.90;;;;;;4988922;28;20069;-66
2022/12/05 02:42:58;;;;;;;145.82;56.25;;;3.10;99.90;;;;;;5013544;28;20486;-65
2022/12/05 02:45:47;;;;;;;139.43;54.03;;;3.00;99.90;;;;;;5014310;28;20041;-65
2022/12/05 02:48:34;;;;;;;130.57;50.90;;;3.10;99.90;;;;;;5007424;28;20038;-67
2022/12/05 02:51:23;;;;;;;126.05;52.35;;;3.20;99.90;;;;;;5025734;28;20033;-65
2022/12/05 02:54:13;;;;;;;146.48;50.95;;;3.20;99.90;;;;;;5025273;28;20042;-66
2022/12/05 02:57:00;;;;;;;159.15;54.55;;;3.10;99.90;;;;;;4995111;28;20110;-65
2022/12/05 02:59:46;;;;;;;126.50;48.15;;;3.10;99.90;;;;;;5030797;28;20018;-67
2022/12/05 03:02:33;;;;;;;117.47;49.58;;;3.10;99.90;;;;;;5034753;28;20032;-65
2022/12/05 03:05:46;;;;;;;120.85;51.72;;;3.20;99.90;;;;;;5027279;28;20029;-66
2022/12/05 03:08:58;;;;;;;106.07;46.95;;;3.10;99.90;;;;;;5018593;28;20038;-66
2022/12/05 03:11:51;;;;;;;114.28;47.47;;;3.10;99.90;;;;;;5001405;28;20045;-65
2022/12/05 03:14:48;;;;;;;104.68;48.15;;;3.00;99.90;;;;;;5015263;28;20464;-66
2022/12/05 03:17:43;;;;;;;105.57;46.55;;;3.10;99.90;;;;;;5000324;28;20034;-67
2022/12/05 03:21:01;;;;;;;98.95;46.90;;;3.10;99.90;;;;;;5001845;28;20040;-67
2022/12/05 03:23:53;;;;;;;100.68;46.80;;;3.00;99.90;;;;;;4998726;28;20058;-66
2022/12/05 03:26:52;;;;;;;97.50;45.10;;;3.10;99.90;;;;;;5000909;28;20084;-67
2022/12/05 03:30:07;;;;;;;87.90;43.05;;;3.10;99.90;;;;;;5014026;28;20103;-64
2022/12/05 03:33:07;;;;;;;97.57;46.57;;;3.10;99.90;;;;;;5000096;28;20026;-66
2022/12/05 03:35:59;;;;;;;105.15;44.45;;;3.10;99.90;;;;;;4994660;28;20038;-67
2022/12/05 03:39:00;;;;;;;92.95;45.08;;;3.20;99.90;;;;;;4987531;28;20018;-66
2022/12/05 03:42:11;;;;;;;88.57;43.00;;;3.20;99.90;;;;;;5000172;28;20160;-66
2022/12/05 03:45:02;;;;;;;84.85;41.88;;;3.20;99.90;;;;;;5014483;28;20030;-65
2022/12/05 03:48:13;;;;;;;82.45;42.05;;;3.10;99.90;;;;;;5000551;28;20113;-65
2022/12/05 03:51:00;;;;;;;81.15;39.35;;;3.20;99.90;;;;;;4992675;28;20060;-66
2022/12/05 03:54:15;;;;;;;79.07;37.83;;;3.10;99.90;;;;;;5005772;28;20022;-67
2022/12/05 03:57:14;;;;;;;80.20;38.17;;;3.10;99.90;;;;;;4999661;28;20084;-66
2022/12/05 04:00:08;;;;;;;71.38;36.80;;;3.20;99.90;;;;;;4995140;28;20022;-66
2022/12/05 04:02:59;;;;;;;71.10;35.95;;;3.10;99.90;;;;;;4998474;28;20105;-66
2022/12/05 04:05:48;;;;;;;62.70;33.65;;;3.00;99.90;;;;;;5000469;28;20157;-67
2022/12/05 04:08:59;;;;;;;72.10;36.08;;;3.10;99.90;;;;;;4999291;28;20037;-67
2022/12/05 04:11:52;;;;;;;65.53;33.42;;;3.10;99.90;;;;;;4999230;28;20037;-67
2022/12/05 04:14:48;;;;;;;61.35;32.90;;;3.10;99.90;;;;;;5013736;28;20478;-66
2022/12/05 04:17:39;;;;;;;65.10;32.55;;;3.10;99.90;;;;;;5014026;28;20498;-67
2022/12/05 04:23:42;;;;;;;53.03;29.17;;;3.10;99.90;;;;;;5014670;28;20105;-66
2022/12/05 04:26:31;;;;;;;51.47;29.35;;;2.90;99.90;;;;;;5013911;28;20041;-67
2022/12/05 04:29:30;;;;;;;44.65;26.05;;;2.80;99.90;;;;;;5013307;28;20041;-67
2022/12/05 04:32:18;;;;;;;46.47;25.88;;;2.90;99.90;;;;;;4999167;28;20046;-66
2022/12/05 04:35:10;;;;;;;42.33;24.50;;;2.80;99.90;;;;;;5012502;28;20537;-66
2022/12/05 04:38:20;;;;;;;43.78;25.48;;;2.70;99.90;;;;;;4994629;28;20041;-66
2022/12/05 04:41:12;;;;;;;40.85;23.90;;;2.60;99.90;;;;;;4984633;28;20026;-66
2022/12/05 04:44:04;;;;;;;36.05;23.98;;;2.60;99.90;;;;;;4999672;28;20037;-66
2022/12/05 04:46:53;;;;;;;41.90;24.35;;;2.60;99.90;;;;;;5005430;28;20065;-66
2022/12/05 04:49:41;;;;;;;41.17;25.38;;;2.60;99.90;;;;;;4978691;28;20034;-65
2022/12/05 04:52:29;;;;;;;38.83;22.52;;;2.70;99.90;;;;;;4994586;28;20493;-66
2022/12/05 04:55:24;;;;;;;35.70;22.48;;;2.60;99.90;;;;;;5012820;28;20025;-65
2022/12/05 04:58:14;;;;;;;36.75;21.73;;;2.70;99.90;;;;;;4992919;28;20027;-65
2022/12/05 05:01:21;;;;;;;37.17;23.33;;;2.70;99.90;;;;;;4995071;28;20061;-65
2022/12/05 05:04:12;;;;;;;39.08;23.63;;;2.80;99.90;;;;;;4992869;28;20030;-66
2022/12/05 05:06:58;;;;;;;36.90;21.00;;;2.80;99.90;;;;;;4993209;28;20450;-66
2022/12/05 05:09:44;;;;;;;35.47;21.58;;;2.70;99.90;;;;;;5012174;28;20434;-66
2022/12/05 05:12:30;;;;;;;37.85;23.40;;;2.80;99.90;;;;;;4992371;28;20036;-65
2022/12/05 05:15:16;;;;;;;37.80;22.83;;;2.90;99.90;;;;;;4987072;28;20026;-64
2022/12/05 05:18:02;;;;;;;39.47;23.80;;;2.90;99.90;;;;;;4997455;28;20025;-64
2022/12/05 05:20:49;;;;;;;33.33;21.95;;;2.90;99.90;;;;;;5012045;28;20026;-65
2022/12/05 05:23:35;;;;;;;34.45;21.85;;;2.90;99.90;;;;;;5012628;28;20388;-66
2022/12/05 05:26:21;;;;;;;34.70;21.85;;;3.00;99.90;;;;;;4966232;28;20454;-69
2022/12/05 05:29:09;;;;;;;33.03;21.02;;;3.00;99.90;;;;;;4994915;28;20518;-66
2022/12/05 05:31:55;;;;;;;34.15;21.02;;;3.00;99.90;;;;;;5011400;28;20498;-65
2022/12/05 05:34:40;;;;;;;36.08;22.25;;;3.00;99.90;;;;;;5012432;28;20033;-66
2022/12/05 05:37:26;;;;;;;29.85;20.13;;;3.00;99.90;;;;;;5012798;28;20042;-66
2022/12/05 05:40:13;;;;;;;33.25;20.70;;;3.00;99.90;;;;;;4971204;28;20233;-66
2022/12/05 05:42:58;;;;;;;32.83;19.77;;;3.00;99.90;;;;;;4998713;28;20036;-66
2022/12/05 05:45:44;;;;;;;29.23;19.60;;;2.90;99.90;;;;;;4983809;28;20506;-67
2022/12/05 05:48:30;;;;;;;35.17;19.33;;;2.90;99.90;;;;;;4992779;28;20042;-66
2022/12/05 05:51:17;;;;;;;31.63;19.30;;;2.80;99.90;;;;;;5010817;28;20116;-67
2022/12/05 05:54:03;;;;;;;31.38;19.73;;;2.80;99.90;;;;;;5011682;28;20098;-65
2022/12/05 05:56:49;;;;;;;31.77;19.20;;;2.90;99.90;;;;;;4991498;28;20415;-66
2022/12/05 05:59:35;;;;;;;31.50;19.05;;;3.00;99.90;;;;;;4994310;28;20018;-66
2022/12/05 06:02:22;;;;;;;31.73;18.52;;;3.00;99.90;;;;;;4997369;28;20030;-67
2022/12/05 06:05:08;;;;;;;28.88;19.33;;;3.00;99.90;;;;;;5010571;28;20521;-66
2022/12/05 06:07:54;;;;;;;26.88;17.98;;;3.00;99.90;;;;;;5011041;28;20033;-66
2022/12/05 06:10:40;;;;;;;31.15;18.38;;;2.90;99.90;;;;;;4996805;28;20044;-65
2022/12/05 06:13:46;;;;;;;27.08;17.77;;;3.00;99.90;;;;;;4983927;28;20449;-65
2022/12/05 06:16:35;;;;;;;29.83;18.75;;;2.90;99.90;;;;;;5010566;28;20026;-68
2022/12/05 06:19:21;;;;;;;28.50;18.77;;;3.00;99.90;;;;;;4967215;28;20022;-66
2022/12/05 06:22:07;;;;;;;27.77;18.13;;;3.10;99.90;;;;;;4986254;28;20044;-65
2022/12/05 06:24:53;;;;;;;29.23;18.25;;;3.00;99.90;;;;;;5005784;28;20414;-66
2022/12/05 06:27:39;;;;;;;25.08;17.75;;;3.00;99.90;;;;;;5004949;28;20511;-66
2022/12/05 06:30:25;;;;;;;29.30;17.05;;;3.10;99.90;;;;;;4976483;28;20581;-66
2022/12/05 06:33:12;;;;;;;32.13;18.60;;;3.10;99.90;;;;;;4953146;28;20065;-65
2022/12/05 06:36:06;;;;;;;29.27;16.33;;;3.20;99.90;;;;;;5006907;28;20029;-67
2022/12/05 06:38:52;;;;;;;29.38;16.90;;;3.00;99.90;;;;;;5009626;28;20030;-65
2022/12/05 06:41:38;;;;;;;26.52;16.45;;;3.00;99.90;;;;;;5014984;28;20034;-67
2022/12/05 06:44:25;;;;;;;32.95;18.33;;;2.90;99.90;;;;;;5001558;28;20026;-66
2022/12/05 06:47:11;;;;;;;24.98;15.75;;;2.80;99.90;;;;;;5015931;28;20045;-66
2022/12/05 06:50:38;;;;;;;29.10;17.15;;;2.90;99.90;;;;;;5016090;28;20092;-67
2022/12/05 06:53:25;;;;;;;28.30;17.95;;;2.90;99.90;;;;;;4987149;28;20048;-66
2022/12/05 06:56:17;;;;;;;27.42;17.67;;;2.90;99.90;;;;;;4992196;28;20105;-67
2022/12/05 06:59:03;;;;;;;24.60;16.73;;;3.10;99.90;;;;;;5013259;28;20119;-67
2022/12/05 07:01:52;;;;;;;25.83;16.38;;;3.10;99.90;;;;;;5000521;28;20030;-67
2022/12/05 07:04:38;;;;;;;24.92;16.92;;;3.00;99.90;;;;;;4981445;28;20026;-65
2022/12/05 07:07:40;;;;;;;27.77;18.20;;;3.00;99.90;;;;;;5015154;28;20038;-68
2022/12/05 07:10:26;;;;;;;26.15;16.60;;;3.10;99.90;;;;;;4989361;28;20041;-66
2022/12/05 07:13:12;;;;;;;26.33;17.23;;;3.10;99.90;;;;;;4987783;28;20022;-66
2022/12/05 07:15:58;;;;;;;28.00;16.30;;;3.00;99.90;;;;;;5017953;28;20037;-66
2022/12/05 07:18:44;;;;;;;27.42;17.38;;;3.00;99.90;;;;;;5032249;28;20053;-67
2022/12/05 07:21:30;;;;;;;25.02;16.27;;;3.00;99.90;;;;;;5016852;28;20056;-66
2022/12/05 07:24:16;;;;;;;24.75;17.27;;;3.00;99.90;;;;;;5004823;28;20033;-66
2022/12/05 07:27:02;;;;;;;26.15;15.40;;;3.10;99.90;;;;;;4999727;28;20019;-67
2022/12/05 07:29:48;;;;;;;26.73;16.50;;;3.10;99.90;;;;;;5013915;28;20385;-67
2022/12/05 07:32:34;;;;;;;24.85;16.30;;;3.10;99.90;;;;;;4997227;28;20045;-65
2022/12/05 07:35:20;;;;;;;25.92;16.55;;;3.10;99.90;;;;;;4999868;28;20026;-65
2022/12/05 07:38:06;;;;;;;27.95;17.63;;;3.10;99.90;;;;;;5001200;28;20117;-65
2022/12/05 07:40:52;;;;;;;26.98;16.55;;;3.10;99.90;;;;;;5014485;28;20108;-65
2022/12/05 07:43:38;;;;;;;26.83;15.85;;;3.10;99.90;;;;;;5013341;28;20115;-65
2022/12/05 07:46:25;;;;;;;26.77;16.90;;;3.00;99.90;;;;;;4970645;28;20117;-66
2022/12/05 07:49:10;;;;;;;25.15;15.60;;;3.00;99.90;;;;;;5012993;28;20037;-65
2022/12/05 07:51:57;;;;;;;28.13;16.70;;;3.00;99.90;;;;;;4999456;28;20132;-64
2022/12/05 07:54:43;;;;;;;24.80;15.45;;;3.00;99.90;;;;;;5000375;28;20026;-64
2022/12/05 07:57:29;;;;;;;25.77;15.63;;;3.10;99.90;;;;;;4999154;28;20426;-64
2022/12/05 08:00:16;;;;;;;30.05;15.90;;;3.10;99.90;;;;;;5013221;28;20168;-64
2022/12/05 08:03:02;;;;;;;24.80;15.30;;;3.10;99.90;;;;;;5011666;28;20026;-64
2022/12/05 08:05:48;;;;;;;23.80;16.45;;;3.10;99.90;;;;;;4998728;28;20080;-64
2022/12/05 08:08:34;;;;;;;28.55;15.25;;;3.20;99.90;;;;;;5014343;28;20049;-65
2022/12/05 08:11:23;;;;;;;25.48;15.65;;;3.30;99.90;;;;;;5013037;28;20499;-64
2022/12/05 08:14:10;;;;;;;26.38;15.77;;;3.20;99.90;;;;;;5011941;28;20065;-64
2022/12/05 08:16:56;;;;;;;25.77;17.38;;;3.20;99.90;;;;;;5005587;28;20037;-64
2022/12/05 08:19:42;;;;;;;23.85;15.75;;;3.10;99.90;;;;;;4998207;28;20098;-63
2022/12/05 08:22:28;;;;;;;23.30;15.52;;;3.10;99.90;;;;;;4986703;28;20403;-65
2022/12/05 08:25:14;;;;;;;29.67;15.98;;;3.10;99.90;;;;;;4984992;28;20053;-63
2022/12/05 08:28:00;;;;;;;29.52;17.38;;;3.10;99.90;;;;;;5005229;28;20104;-62
2022/12/05 08:30:45;;;;;;;29.55;15.70;;;3.20;99.90;;;;;;5012204;28;20049;-61
2022/12/05 08:33:32;;;;;;;28.02;17.08;;;3.30;99.90;;;;;;5013938;28;20038;-62
2022/12/05 08:36:18;;;;;;;27.75;16.60;;;3.20;99.90;;;;;;5011870;28;20026;-63
2022/12/05 08:39:06;;;;;;;29.38;15.85;;;3.00;99.90;;;;;;5010486;28;20030;-65
2022/12/05 08:41:52;;;;;;;26.13;17.42;;;3.10;99.90;;;;;;4995878;28;20542;-64
2022/12/05 08:44:38;;;;;;;29.05;16.48;;;3.20;99.90;;;;;;5010076;28;20130;-64
2022/12/05 08:47:24;;;;;;;30.55;17.58;;;3.10;99.90;;;;;;5009114;28;20033;-64
2022/12/05 08:50:10;;;;;;;30.65;17.23;;;3.10;99.90;;;;;;5010357;28;20034;-63
2022/12/05 08:52:56;;;;;;;28.65;17.10;;;3.20;99.90;;;;;;5009727;28;20037;-61
2022/12/05 08:55:42;;;;;;;31.45;17.85;;;3.20;99.90;;;;;;4995366;28;20030;-62
2022/12/05 08:58:28;;;;;;;31.88;17.17;;;3.30;99.90;;;;;;4995821;28;20041;-62
2022/12/05 09:01:18;;;;;;;34.40;17.75;;;3.30;99.90;;;;;;4995286;28;20030;-63
2022/12/05 09:04:07;;;;;;;30.25;18.00;;;3.30;99.90;;;;;;4995590;28;20037;-64
2022/12/05 09:06:53;;;;;;;32.40;17.48;;;3.30;99.90;;;;;;5010534;28;20030;-64
2022/12/05 09:09:39;;;;;;;30.27;17.08;;;3.30;99.90;;;;;;4995054;28;20026;-65
2022/12/05 09:12:25;;;;;;;30.45;16.30;;;3.40;99.90;;;;;;5011650;28;20064;-63
2022/12/05 09:15:11;;;;;;;30.58;17.02;;;3.40;99.90;;;;;;5011814;28;20549;-63
2022/12/05 09:17:57;;;;;;;27.23;16.85;;;3.20;99.90;;;;;;5010055;28;20112;-65
2022/12/05 09:20:43;;;;;;;30.15;16.65;;;3.10;99.90;;;;;;4996514;28;20072;-64
2022/12/05 09:23:29;;;;;;;30.13;17.88;;;3.20;99.90;;;;;;4995194;28;20041;-64
2022/12/05 09:26:17;;;;;;;29.90;18.95;;;3.20;99.90;;;;;;4998046;28;20030;-64
2022/12/05 09:29:03;;;;;;;33.17;17.75;;;3.30;99.90;;;;;;4996707;28;20494;-63
2022/12/05 09:31:51;;;;;;;33.00;17.13;;;3.30;99.90;;;;;;4981712;28;20037;-64
2022/12/05 09:34:37;;;;;;;32.55;18.70;;;3.20;99.90;;;;;;5009779;28;20524;-65
2022/12/05 09:37:23;;;;;;;35.40;18.65;;;3.20;99.90;;;;;;5010283;28;20468;-64
2022/12/05 09:40:16;;;;;;;34.90;18.48;;;3.20;99.90;;;;;;5007834;28;20085;-64
2022/12/05 09:43:07;;;;;;;27.48;16.90;;;3.10;99.90;;;;;;5008379;28;20033;-63
2022/12/05 09:46:09;;;;;;;31.58;18.42;;;3.20;99.90;;;;;;4997533;28;20037;-64
2022/12/05 09:48:56;;;;;;;39.78;17.63;;;3.20;99.90;;;;;;5007403;28;20520;-63
2022/12/05 09:51:44;;;;;;;36.47;18.90;;;3.20;99.90;;;;;;4991473;28;20026;-64
2022/12/05 09:54:31;;;;;;;39.47;18.70;;;3.10;99.90;;;;;;4982909;28;20038;-65
2022/12/05 09:57:33;;;;;;;32.15;17.75;;;3.30;99.90;;;;;;5011982;28;20037;-65
2022/12/05 10:00:19;;;;;;;34.17;17.85;;;3.30;99.90;;;;;;5011708;28;20030;-65
2022/12/05 10:03:48;;;;;;;40.90;19.10;;;3.40;99.90;;;;;;4984066;28;20026;-63
2022/12/05 10:07:06;;;;;;;26.27;16.13;;;3.40;99.90;;;;;;4958528;28;20050;-65
2022/12/05 10:10:10;;;;;;;35.95;18.65;;;3.50;99.90;;;;;;5012111;28;20402;-63
2022/12/05 10:13:38;;;;;;;32.92;17.67;;;3.50;99.90;;;;;;5011605;28;20026;-64
2022/12/05 10:16:35;;;;;;;34.70;18.00;;;3.50;99.90;;;;;;5006672;28;20073;-64
2022/12/05 10:19:27;;;;;;;40.38;18.90;;;3.40;99.90;;;;;;5008115;28;20033;-62
2022/12/05 10:22:18;;;;;;;32.22;18.23;;;3.50;99.90;;;;;;5008927;28;20498;-64
2022/12/05 10:25:05;;;;;;;36.90;18.80;;;3.40;99.90;;;;;;5005718;28;20045;-63
2022/12/05 10:28:14;;;;;;;33.47;18.60;;;3.40;99.90;;;;;;5001407;28;20025;-64
2022/12/05 10:31:06;;;;;;;40.28;17.65;;;3.40;99.90;;;;;;5001970;28;20513;-65
2022/12/05 10:34:01;;;;;;;38.70;17.27;;;3.40;99.90;;;;;;5004602;28;20041;-64
2022/12/05 10:37:20;;;;;;;31.97;18.43;;;3.40;99.90;;;;;;5009063;28;20028;-64
2022/12/05 10:40:11;;;;;;;36.65;17.00;;;3.30;99.90;;;;;;5008591;28;20037;-64
2022/12/05 10:42:57;;;;;;;28.80;16.48;;;3.20;99.90;;;;;;5010410;28;21577;-64
2022/12/05 10:45:46;;;;;;;31.50;17.38;;;3.20;99.90;;;;;;5004569;28;20037;-64
2022/12/05 10:48:37;;;;;;;30.60;15.95;;;3.10;99.90;;;;;;5006875;28;20494;-65
2022/12/05 10:51:26;;;;;;;45.72;17.40;;;3.10;99.90;;;;;;4990900;28;20065;-64
2022/12/05 10:54:28;;;;;;;31.20;16.98;;;2.90;99.90;;;;;;5004123;28;20084;-64
2022/12/05 10:57:26;;;;;;;33.63;16.02;;;2.90;99.90;;;;;;5004867;28;20026;-64
2022/12/05 11:00:16;;;;;;;36.67;16.85;;;3.00;99.90;;;;;;5005262;28;20113;-64
2022/12/05 11:03:04;;;;;;;39.75;17.50;;;3.00;99.90;;;;;;5006493;28;20460;-65
2022/12/05 11:06:11;;;;;;;32.55;16.00;;;2.90;99.90;;;;;;4995464;28;20746;-65
2022/12/05 11:09:04;;;;;;;35.05;16.70;;;2.90;99.90;;;;;;5007408;28;20605;-65
2022/12/05 11:12:12;;;;;;;34.10;15.68;;;3.00;99.90;;;;;;5010095;28;20045;-64
2022/12/05 11:15:26;;;;;;;42.95;16.67;;;3.00;99.90;;;;;;5010403;28;20530;-65
2022/12/05 11:18:32;;;;;;;35.17;16.65;;;3.00;99.90;;;;;;5008502;28;20026;-65
2022/12/05 11:21:19;;;;;;;;;;;2.90;99.90;;;;;;5010267;28;20026;-64
2022/12/05 11:24:27;;;;;;;39.55;17.92;;;3.00;99.90;;;;;;5011397;28;19916;-65
2022/12/05 11:27:16;;;;;;;32.42;17.33;;;3.00;99.90;;;;;;5014441;28;20034;-64
2022/12/05 11:30:10;;;;;;;32.83;17.27;;;2.90;99.90;;;;;;5016209;28;20398;-64
2022/12/05 11:33:19;;;;;;;27.00;17.52;;;2.90;99.90;;;;;;5001520;28;20018;-64
2022/12/05 11:36:17;;;;;;;32.65;17.60;;;2.80;99.90;;;;;;5004689;28;20046;-65
2022/12/05 11:39:03;;;;;;;30.25;16.52;;;2.90;99.90;;;;;;5016771;28;20061;-64
2022/12/05 11:42:08;;;;;;;28.35;16.60;;;2.90;99.90;;;;;;5008094;28;20036;-65
2022/12/05 11:45:12;;;;;;;31.67;17.15;;;2.90;99.90;;;;;;5032123;28;20022;-65
2022/12/05 11:48:18;;;;;;;31.40;16.60;;;2.90;99.90;;;;;;5033803;28;20045;-65
2022/12/05 11:51:27;;;;;;;38.13;16.98;;;2.90;99.90;;;;;;5031998;28;20055;-64
2022/12/05 11:54:28;;;;;;;29.15;17.67;;;2.80;99.90;;;;;;5029853;28;20033;-64
2022/12/05 11:57:35;;;;;;;28.05;16.15;;;2.90;99.90;;;;;;5017950;28;20018;-65
2022/12/05 12:00:39;;;;;;;26.55;15.68;;;2.90;99.90;;;;;;5018777;28;20447;-65
2022/12/05 12:03:56;;;;;;;29.38;16.42;;;2.90;99.90;;;;;;4995134;28;20030;-66
2022/12/05 12:06:51;;;;;;;27.45;15.48;;;3.00;99.90;;;;;;4987231;28;20022;-65
2022/12/05 12:10:09;;;;;;;32.90;17.15;;;3.00;99.90;;;;;;5015107;28;20029;-65
2022/12/05 12:13:02;;;;;;;24.75;15.30;;;3.10;99.90;;;;;;4969917;28;20027;-65
2022/12/05 12:16:11;;;;;;;29.45;16.02;;;3.20;99.90;;;;;;5000129;28;20509;-66
2022/12/05 12:19:28;;;;;;;26.10;17.05;;;3.10;99.90;;;;;;4991919;28;20528;-66
2022/12/05 12:22:35;;;;;;;29.88;16.70;;;3.00;99.90;;;;;;5011514;28;20058;-65
2022/12/05 12:25:30;;;;;;;27.50;16.65;;;3.00;99.90;;;;;;5014353;28;20026;-65
2022/12/05 12:28:42;;;;;;;28.38;17.58;;;3.10;99.90;;;;;;4998208;28;20084;-63
2022/12/05 12:31:42;;;;;;;26.92;16.83;;;3.10;99.90;;;;;;5011236;28;20121;-65
2022/12/05 12:34:55;;;;;;;25.63;17.20;;;3.20;99.90;;;;;;4999542;28;20033;-64
2022/12/05 12:38:04;;;;;;;26.13;15.70;;;3.10;99.90;;;;;;5013796;28;20040;-64
2022/12/05 12:40:57;;;;;;;31.60;17.00;;;3.30;99.90;;;;;;4999326;28;20022;-64
2022/12/05 12:44:16;;;;;;;25.60;16.63;;;3.20;99.90;;;;;;4999459;28;20026;-63
2022/12/05 12:47:10;;;;;;;28.27;17.05;;;3.20;99.90;;;;;;5013236;28;20104;-65
2022/12/05 12:50:20;;;;;;;29.90;16.55;;;3.20;99.90;;;;;;5013029;28;20041;-64
2022/12/05 12:53:31;;;;;;;23.90;15.98;;;3.20;99.90;;;;;;5012952;28;20109;-64
2022/12/05 12:56:27;;;;;;;27.23;17.92;;;3.20;99.90;;;;;;4998911;28;20034;-64
2022/12/05 12:59:36;;;;;;;22.45;15.52;;;3.20;99.90;;;;;;5013197;28;20022;-64
2022/12/05 13:02:43;;;;;;;25.40;15.95;;;3.20;99.90;;;;;;5012495;28;20061;-64
2022/12/05 13:05:35;;;;;;;24.33;15.73;;;3.20;99.90;;;;;;5012985;28;20486;-65
2022/12/05 13:08:44;;;;;;;26.70;17.23;;;3.30;99.90;;;;;;5012425;28;20041;-63
2022/12/05 13:11:40;;;;;;;26.75;17.65;;;3.20;99.90;;;;;;4998624;28;20057;-65
2022/12/05 13:14:29;;;;;;;27.38;17.70;;;3.20;99.90;;;;;;5013007;28;20083;-64
2022/12/05 13:17:19;;;;;;;24.73;16.98;;;3.30;99.90;;;;;;5012406;28;20026;-64
2022/12/05 13:20:12;;;;;;;25.67;17.05;;;3.30;99.90;;;;;;5012766;28;20033;-65
2022/12/05 13:23:00;;;;;;;33.78;15.35;;;3.30;99.90;;;;;;5011979;28;20061;-64
2022/12/05 13:25:47;;;;;;;30.63;17.40;;;3.20;99.90;;;;;;4998286;28;20132;-65
2022/12/05 13:28:40;;;;;;;27.98;17.77;;;3.10;99.90;;;;;;5009942;28;20026;-67
2022/12/05 13:31:38;;;;;;;28.70;18.75;;;3.10;99.90;;;;;;4987249;28;20034;-66
2022/12/05 13:34:46;;;;;;;30.02;19.02;;;3.00;99.90;;;;;;4997380;28;20069;-68
2022/12/05 13:43:54;;;;;;;28.73;18.77;;;3.50;99.90;;;;;;5009785;28;20034;-65
2022/12/05 13:46:42;;;;;;;26.67;18.42;;;3.40;99.90;;;;;;5012048;28;20264;-64
2022/12/05 13:49:44;;;;;;;33.90;19.75;;;3.40;99.90;;;;;;5010208;28;20056;-64
2022/12/05 13:52:52;;;;;;;38.85;19.63;;;3.50;99.90;;;;;;5002428;28;20072;-63
2022/12/05 13:55:55;;;;;;;29.30;18.92;;;3.40;99.90;;;;;;5011016;28;20045;-65
2022/12/05 13:58:48;;;;;;;26.00;17.83;;;3.50;99.90;;;;;;4998080;28;20498;-67
2022/12/05 14:01:46;;;;;;;26.52;18.15;;;3.50;99.90;;;;;;5006691;28;20472;-66
2022/12/05 14:04:49;;;;;;;28.25;19.58;;;3.40;99.90;;;;;;5004550;28;20025;-65
2022/12/05 14:07:41;;;;;;;34.20;20.48;;;3.40;99.90;;;;;;5010626;28;20553;-64
2022/12/05 14:10:27;;;;;;;30.63;21.88;;;3.40;99.90;;;;;;4991585;28;20038;-65
2022/12/05 14:13:16;;;;;;;39.85;27.77;;;3.40;99.90;;;;;;4991417;28;20089;-65
2022/12/05 14:16:23;;;;;;;32.13;21.63;;;3.30;99.90;;;;;;4996237;28;20021;-64
2022/12/05 14:19:28;;;;;;;33.47;24.13;;;3.20;99.90;;;;;;4997564;28;20188;-64
2022/12/05 14:22:40;;;;;;;31.08;20.27;;;3.30;99.90;;;;;;5010718;28;20018;-64
2022/12/05 14:25:50;;;;;;;30.67;19.88;;;3.40;99.90;;;;;;5010130;28;20033;-65
2022/12/05 14:28:56;;;;;;;32.30;19.77;;;3.40;99.90;;;;;;5010769;28;20036;-65
2022/12/05 14:32:04;;;;;;;30.42;20.00;;;3.40;99.90;;;;;;4997650;28;20026;-66
2022/12/05 14:34:59;;;;;;;27.15;19.58;;;3.50;99.90;;;;;;5010977;28;20390;-67
2022/12/05 14:37:52;;;;;;;;;;;3.50;99.90;;;;;;5010700;28;20030;-65
2022/12/05 14:40:42;;;;;;;29.13;20.02;;;3.40;99.90;;;;;;5006735;28;20016;-65
2022/12/05 14:43:30;;;;;;;26.42;19.40;;;3.40;99.90;;;;;;5002760;28;20508;-63
2022/12/05 14:46:26;;;;;;;29.33;20.98;;;3.50;99.90;;;;;;4995916;28;20026;-64
2022/12/05 14:49:50;;;;;;;30.88;21.50;;;3.40;99.90;;;;;;5011073;28;20565;-65
2022/12/05 14:52:39;;;;;;;28.02;21.15;;;3.40;99.90;;;;;;4990240;28;20042;-65
2022/12/05 14:55:25;;;;;;;28.88;20.83;;;3.40;99.90;;;;;;5005950;28;20069;-63
2022/12/05 14:58:50;;;;;;;26.77;20.75;;;3.50;99.90;;;;;;5001073;28;20080;-64
2022/12/05 15:02:20;;;;;;;29.88;20.38;;;3.50;99.90;;;;;;5010353;28;20022;-64